createdAt,value
2022-10-31T00:01:40.344Z,98069.41
2022-10-31T00:04:08.567Z,98073.13
2022-10-31T00:06:36.629Z,98070.41
2022-10-31T00:09:06.517Z,98069.59
2022-10-31T00:11:34.594Z,98068.56
2022-10-31T00:14:02.919Z,98077.22
2022-10-31T00:16:31.719Z,98073.25
2022-10-31T00:19:03.661Z,98076.94
2022-10-31T00:21:33.068Z,98071.75
2022-10-31T00:24:01.996Z,98071.75
2022-10-31T00:26:31.969Z,98069.28
2022-10-31T00:29:01.287Z,98068.25
2022-10-31T00:31:29.836Z,98070.28
2022-10-31T00:33:59.355Z,98073.16
2022-10-31T00:36:28.497Z,98070.28
2022-10-31T00:38:56.844Z,98067.78
2022-10-31T00:41:25.982Z,98068.19
2022-10-31T00:43:54.086Z,98066.69
2022-10-31T00:46:22.147Z,98066.06
2022-10-31T00:48:52.180Z,98065.41
2022-10-31T00:51:20.381Z,98063.38
2022-10-31T00:53:48.454Z,98065.06
2022-10-31T00:56:16.638Z,98059.66
2022-10-31T00:58:44.873Z,98067.56
2022-10-31T01:01:13.300Z,98063.19
2022-10-31T01:03:41.511Z,98059.84
2022-10-31T01:06:14.608Z,98057.81
2022-10-31T01:08:43.071Z,98059.84
2022-10-31T01:11:32.496Z,98057.81
2022-10-31T01:14:00.597Z,98064.47
2022-10-31T01:16:30.614Z,98060.94
2022-10-31T01:18:59.518Z,98048.31
2022-10-31T01:21:30.701Z,98060.75
2022-10-31T01:24:03.257Z,98050.00
2022-10-31T01:26:33.707Z,98056.41
2022-10-31T01:29:06.015Z,98046.69
2022-10-31T01:31:38.652Z,98047.22
2022-10-31T01:34:07.822Z,98054.94
2022-10-31T01:36:39.141Z,98053.25
2022-10-31T01:39:14.518Z,98049.56
2022-10-31T01:41:50.051Z,98041.28
2022-10-31T01:44:18.047Z,98052.63
2022-10-31T01:46:52.208Z,98053.19
2022-10-31T01:49:29.431Z,98053.56
2022-10-31T01:52:26.052Z,98051.28
2022-10-31T01:55:00.161Z,98052.09
2022-10-31T01:57:30.260Z,98051.47
2022-10-31T02:00:05.450Z,98055.34
2022-10-31T02:02:42.954Z,98048.22
2022-10-31T02:05:21.026Z,98049.44
2022-10-31T02:08:19.609Z,98056.03
2022-10-31T02:10:51.294Z,98047.31
2022-10-31T02:13:20.847Z,98051.78
2022-10-31T02:15:58.255Z,98054.88
2022-10-31T02:18:31.486Z,98048.22
2022-10-31T02:21:39.192Z,98055.41
2022-10-31T02:24:49.141Z,98048.56
2022-10-31T02:27:43.127Z,98050.97
2022-10-31T02:30:19.610Z,98056.75
2022-10-31T02:33:23.693Z,98049.06
2022-10-31T02:36:16.157Z,98049.34
2022-10-31T02:39:24.898Z,98049.34
2022-10-31T02:42:24.542Z,98045.81
2022-10-31T02:45:22.647Z,98046.81
2022-10-31T02:47:56.292Z,98041.63
2022-10-31T02:50:29.861Z,98037.19
2022-10-31T02:52:57.792Z,98039.22
2022-10-31T02:55:27.216Z,98037.13
2022-10-31T02:58:06.280Z,98034.03
2022-10-31T03:00:52.197Z,98033.03
2022-10-31T03:03:48.342Z,98028.84
2022-10-31T03:06:49.287Z,98032.09
2022-10-31T03:09:50.151Z,98035.44
2022-10-31T03:12:48.578Z,98039.22
2022-10-31T03:15:35.373Z,98041.09
2022-10-31T03:18:27.843Z,98044.59
2022-10-31T03:21:15.826Z,98041.28
2022-10-31T03:23:48.023Z,98050.34
2022-10-31T03:26:24.107Z,98043.97
2022-10-31T03:29:04.311Z,98042.28
2022-10-31T03:31:43.003Z,98038.13
2022-10-31T03:34:13.076Z,98040.16
2022-10-31T03:36:42.597Z,98039.34
2022-10-31T03:39:15.720Z,98040.16
2022-10-31T03:41:54.624Z,98040.75
2022-10-31T03:44:24.755Z,98041.38
2022-10-31T03:47:01.091Z,98036.38
2022-10-31T03:49:30.274Z,98039.06
2022-10-31T03:52:36.734Z,98035.72
2022-10-31T03:55:31.721Z,98037.59
2022-10-31T03:58:09.339Z,98039.25
2022-10-31T04:00:43.463Z,98034.91
2022-10-31T04:03:22.343Z,98037.59
2022-10-31T04:05:56.310Z,98030.72
2022-10-31T04:08:33.293Z,98029.72
2022-10-31T04:11:03.759Z,98034.25
2022-10-31T04:13:36.999Z,98034.44
2022-10-31T04:16:15.966Z,98032.59
2022-10-31T04:18:45.666Z,98031.75
2022-10-31T04:21:13.726Z,98023.88
2022-10-31T04:23:41.835Z,98021.19
2022-10-31T04:26:17.449Z,98016.88
2022-10-31T04:28:45.794Z,98021.56
2022-10-31T04:31:15.291Z,98018.88
2022-10-31T04:33:45.800Z,98012.84
2022-10-31T04:36:14.005Z,98012.22
2022-10-31T04:38:43.400Z,98013.06
2022-10-31T04:41:23.942Z,98001.00
2022-10-31T04:43:59.849Z,98007.59
2022-10-31T04:46:29.110Z,98001.78
2022-10-31T04:48:59.012Z,98000.75
2022-10-31T04:51:27.192Z,97995.75
2022-10-31T04:53:55.421Z,98005.84
2022-10-31T04:56:29.502Z,98004.38
2022-10-31T04:59:00.701Z,97992.81
2022-10-31T05:01:33.221Z,97995.28
2022-10-31T05:04:02.504Z,97995.88
2022-10-31T05:06:32.630Z,97991.50
2022-10-31T05:09:01.078Z,98000.22
2022-10-31T05:11:30.211Z,97990.66
2022-10-31T05:14:08.375Z,97996.88
2022-10-31T05:16:54.935Z,97994.41
2022-10-31T05:19:43.209Z,97987.34
2022-10-31T05:22:37.781Z,97989.22
2022-10-31T05:25:06.491Z,97992.47
2022-10-31T05:27:35.025Z,97990.97
2022-10-31T05:30:03.257Z,97983.47
2022-10-31T05:32:41.082Z,97978.28
2022-10-31T05:35:32.881Z,97974.59
2022-10-31T05:38:25.916Z,97977.00
2022-10-31T05:41:01.200Z,97980.22
2022-10-31T05:43:31.805Z,97983.09
2022-10-31T05:46:00.724Z,97978.91
2022-10-31T05:48:48.994Z,97977.44
2022-10-31T05:51:37.254Z,97979.66
2022-10-31T05:54:06.276Z,97974.28
2022-10-31T05:56:34.335Z,97966.22
2022-10-31T05:59:02.681Z,97974.91
2022-10-31T06:01:30.961Z,97973.28
2022-10-31T06:04:06.165Z,97974.28
2022-10-31T06:06:35.783Z,97974.28
2022-10-31T06:09:04.023Z,97974.66
2022-10-31T06:11:35.909Z,97967.16
2022-10-31T06:14:04.712Z,97976.41
2022-10-31T06:16:58.834Z,97966.69
2022-10-31T06:19:53.370Z,97971.03
2022-10-31T06:22:23.807Z,97971.03
2022-10-31T06:24:52.003Z,97974.72
2022-10-31T06:27:28.246Z,97966.41
2022-10-31T06:30:04.373Z,97968.47
2022-10-31T06:32:33.890Z,97970.09
2022-10-31T06:35:02.095Z,97969.47
2022-10-31T06:37:30.293Z,97965.59
2022-10-31T06:40:07.499Z,97968.72
2022-10-31T06:43:01.748Z,97963.63
2022-10-31T06:45:31.780Z,97966.97
2022-10-31T06:48:18.684Z,97968.44
2022-10-31T06:51:25.054Z,97970.59
2022-10-31T06:53:53.231Z,97973.44
2022-10-31T06:56:21.343Z,97970.41
2022-10-31T06:58:53.617Z,97971.88
2022-10-31T07:01:36.365Z,97974.38
2022-10-31T07:04:05.002Z,97979.75
2022-10-31T07:06:36.444Z,97982.91
2022-10-31T07:09:05.369Z,97978.81
2022-10-31T07:11:35.982Z,97984.88
2022-10-31T07:14:04.533Z,97988.28
2022-10-31T07:16:32.543Z,97991.78
2022-10-31T07:19:01.320Z,97993.94
2022-10-31T07:21:30.458Z,97992.53
2022-10-31T07:23:58.684Z,97988.47
2022-10-31T07:26:47.094Z,97996.63
2022-10-31T07:29:16.065Z,97995.41
2022-10-31T07:31:46.454Z,97996.69
2022-10-31T07:34:21.254Z,97995.94
2022-10-31T07:37:07.793Z,98002.81
2022-10-31T07:39:36.981Z,97998.06
2022-10-31T07:42:05.762Z,98003.28
2022-10-31T07:44:35.160Z,98003.50
2022-10-31T07:47:50.189Z,98000.28
2022-10-31T07:50:37.235Z,98006.13
2022-10-31T07:53:23.661Z,98002.22
2022-10-31T07:55:55.725Z,97998.31
2022-10-31T07:58:30.136Z,98004.59
2022-10-31T08:01:00.576Z,97999.28
2022-10-31T08:03:38.659Z,98001.03
2022-10-31T08:06:25.103Z,98006.50
2022-10-31T08:08:53.214Z,97997.66
2022-10-31T08:11:21.387Z,97995.03
2022-10-31T08:13:49.616Z,97995.75
2022-10-31T08:16:17.806Z,97990.59
2022-10-31T08:18:59.938Z,97984.50
2022-10-31T08:21:31.238Z,97983.91
2022-10-31T08:24:00.188Z,97980.63
2022-10-31T08:26:30.664Z,97981.72
2022-10-31T08:28:59.588Z,97990.88
2022-10-31T08:31:33.940Z,97975.63
2022-10-31T08:34:22.134Z,97971.97
2022-10-31T08:37:08.458Z,97960.41
2022-10-31T08:39:48.655Z,97968.34
2022-10-31T08:42:16.736Z,97963.63
2022-10-31T08:44:44.849Z,97960.97
2022-10-31T08:47:13.410Z,97961.41
2022-10-31T08:49:41.611Z,97969.09
2022-10-31T08:52:14.319Z,97974.50
2022-10-31T08:54:43.904Z,97970.13
2022-10-31T08:57:31.750Z,97966.59
2022-10-31T09:00:01.033Z,97961.59
2022-10-31T09:02:44.624Z,97964.09
2022-10-31T09:05:15.227Z,97967.84
2022-10-31T09:07:43.280Z,97957.06
2022-10-31T09:10:11.991Z,97959.13
2022-10-31T09:12:40.197Z,97963.28
2022-10-31T09:15:28.452Z,97960.59
2022-10-31T09:18:17.251Z,97953.78
2022-10-31T09:21:11.636Z,97957.28
2022-10-31T09:23:40.296Z,97964.53
2022-10-31T09:26:08.499Z,97954.03
2022-10-31T09:28:46.346Z,97961.69
2022-10-31T09:31:16.665Z,97955.09
2022-10-31T09:33:56.061Z,97947.66
2022-10-31T09:36:39.990Z,97947.66
2022-10-31T09:39:22.099Z,97952.28
2022-10-31T09:42:17.396Z,97954.16
2022-10-31T09:45:20.545Z,97956.09
2022-10-31T09:48:03.679Z,97950.91
2022-10-31T09:50:42.270Z,97954.47
2022-10-31T09:54:01.472Z,97962.16
2022-10-31T09:56:31.592Z,97970.09
2022-10-31T09:59:04.450Z,97968.03
2022-10-31T10:01:59.095Z,97956.63
2022-10-31T10:05:16.696Z,97956.63
2022-10-31T10:08:09.171Z,97954.78
2022-10-31T10:11:15.743Z,97950.03
2022-10-31T10:14:20.932Z,97950.03
2022-10-31T10:17:18.628Z,97946.75
2022-10-31T10:20:26.940Z,97946.56
2022-10-31T10:23:15.776Z,97942.22
2022-10-31T10:25:50.680Z,97938.06
2022-10-31T10:28:42.041Z,97934.13
2022-10-31T10:31:29.950Z,97939.28
2022-10-31T10:34:20.234Z,97930.56
2022-10-31T10:37:28.513Z,97934.09
2022-10-31T10:40:23.091Z,97919.97
2022-10-31T10:43:20.005Z,97922.88
2022-10-31T10:46:28.257Z,97917.03
2022-10-31T10:49:19.502Z,97911.84
2022-10-31T10:55:15.089Z,97916.19
2022-10-31T10:57:58.380Z,97918.22
2022-10-31T11:00:41.843Z,97908.47
2022-10-31T11:03:11.977Z,97899.28
2022-10-31T11:05:59.967Z,97897.63
2022-10-31T11:08:37.305Z,97888.31
2022-10-31T11:11:12.469Z,97884.34
2022-10-31T11:13:43.644Z,97880.16
2022-10-31T11:16:41.750Z,97883.88
2022-10-31T11:19:28.050Z,97868.91
2022-10-31T11:22:09.855Z,97865.38
2022-10-31T11:24:42.351Z,97857.66
2022-10-31T11:27:22.540Z,97856.41
2022-10-31T11:29:53.647Z,97857.00
2022-10-31T11:32:29.501Z,97865.53
2022-10-31T11:35:04.905Z,97854.91
2022-10-31T11:37:36.947Z,97855.50
2022-10-31T11:40:08.031Z,97849.84
2022-10-31T11:42:42.630Z,97842.16
2022-10-31T11:45:28.677Z,97848.56
2022-10-31T11:48:00.203Z,97849.16
2022-10-31T11:50:38.286Z,97851.84
2022-10-31T11:53:36.376Z,97840.59
2022-10-31T11:56:18.033Z,97839.50
2022-10-31T11:59:06.849Z,97844.25
2022-10-31T12:01:35.228Z,97841.91
2022-10-31T12:04:14.296Z,97845.47
2022-10-31T12:06:47.178Z,97840.66
2022-10-31T12:09:33.889Z,97829.38
2022-10-31T12:12:43.703Z,97823.56
2022-10-31T12:15:31.368Z,97819.78
2022-10-31T12:18:51.804Z,97805.19
2022-10-31T12:21:50.430Z,97805.75
2022-10-31T12:24:33.872Z,97802.16
2022-10-31T12:27:10.960Z,97787.81
2022-10-31T12:29:50.704Z,97793.22
2022-10-31T12:32:30.188Z,97788.09
2022-10-31T12:35:43.517Z,97793.72
2022-10-31T12:38:51.314Z,97776.84
2022-10-31T12:41:49.850Z,97781.41
2022-10-31T12:44:46.518Z,97774.78
2022-10-31T12:47:43.205Z,97775.03
2022-10-31T12:50:33.307Z,97773.38
2022-10-31T12:54:16.623Z,97766.53
2022-10-31T12:57:32.111Z,97754.88
2022-10-31T13:00:19.558Z,97745.72
2022-10-31T13:03:13.658Z,97747.22
2022-10-31T13:05:46.056Z,97731.22
2022-10-31T13:08:50.381Z,97732.28
2022-10-31T13:11:23.240Z,97722.94
2022-10-31T13:14:16.670Z,97717.84
2022-10-31T13:16:48.924Z,97718.28
2022-10-31T13:19:31.554Z,97713.09
2022-10-31T13:22:08.765Z,97707.06
2022-10-31T13:25:04.194Z,97711.66
2022-10-31T13:28:01.056Z,97711.44
2022-10-31T13:30:37.540Z,97710.97
2022-10-31T13:33:18.222Z,97708.00
2022-10-31T13:36:05.144Z,97716.63
2022-10-31T13:38:48.713Z,97721.19
2022-10-31T13:41:41.636Z,97718.78
2022-10-31T13:44:25.120Z,97705.16
2022-10-31T13:46:59.155Z,97705.44
2022-10-31T13:49:30.137Z,97701.84
2022-10-31T13:52:15.278Z,97707.16
2022-10-31T13:54:49.926Z,97708.94
2022-10-31T13:57:39.262Z,97704.00
2022-10-31T14:00:22.570Z,97702.13
2022-10-31T14:02:56.893Z,97698.22
2022-10-31T14:05:36.877Z,97687.72
2022-10-31T14:08:07.847Z,97679.88
2022-10-31T14:10:48.120Z,97670.31
2022-10-31T14:13:56.511Z,97679.28
2022-10-31T14:16:29.688Z,97677.38
2022-10-31T14:19:15.897Z,97676.56
2022-10-31T14:21:47.310Z,97674.34
2022-10-31T14:24:24.518Z,97664.75
2022-10-31T14:27:01.005Z,97662.53
2022-10-31T14:29:34.504Z,97667.34
2022-10-31T14:32:14.561Z,97666.56
2022-10-31T14:34:44.684Z,97663.13
2022-10-31T14:37:40.281Z,97668.16
2022-10-31T14:40:32.703Z,97657.50
2022-10-31T14:43:47.211Z,97656.91
2022-10-31T14:47:00.084Z,97657.13
2022-10-31T14:49:59.217Z,97655.22
2022-10-31T14:52:27.541Z,97652.31
2022-10-31T14:55:00.558Z,97664.16
2022-10-31T14:57:35.858Z,97659.59
2022-10-31T15:00:17.469Z,97653.56
2022-10-31T15:03:01.766Z,97660.66
2022-10-31T15:05:31.152Z,97661.69
2022-10-31T15:08:00.350Z,97659.47
2022-10-31T15:10:37.756Z,97658.63
2022-10-31T15:13:19.689Z,97656.38
2022-10-31T15:15:52.046Z,97660.00
2022-10-31T15:18:29.371Z,97666.09
2022-10-31T15:20:58.296Z,97659.34
2022-10-31T15:23:35.371Z,97651.09
2022-10-31T15:26:06.460Z,97652.59
2022-10-31T15:28:34.662Z,97650.81
2022-10-31T15:31:04.350Z,97649.81
2022-10-31T15:33:48.124Z,97644.03
2022-10-31T15:36:29.068Z,97638.47
2022-10-31T15:39:00.107Z,97638.13
2022-10-31T15:42:00.828Z,97643.78
2022-10-31T15:44:36.950Z,97648.00
2022-10-31T15:47:19.925Z,97644.78
2022-10-31T15:49:59.996Z,97638.59
2022-10-31T15:52:45.292Z,97631.22
2022-10-31T15:55:25.082Z,97623.84
2022-10-31T15:58:06.007Z,97615.00
2022-10-31T16:00:39.608Z,97612.28
2022-10-31T16:03:16.581Z,97610.72
2022-10-31T16:06:05.447Z,97611.84
2022-10-31T16:08:37.248Z,97607.16
2022-10-31T16:11:08.298Z,97613.66
2022-10-31T16:14:15.166Z,97612.97
2022-10-31T16:16:50.785Z,97595.34
2022-10-31T16:19:22.105Z,97591.44
2022-10-31T16:22:14.307Z,97586.63
2022-10-31T16:24:53.333Z,97580.88
2022-10-31T16:27:29.941Z,97580.09
2022-10-31T16:30:05.493Z,97583.69
2022-10-31T16:32:52.477Z,97580.81
2022-10-31T16:35:40.960Z,97582.50
2022-10-31T16:38:10.634Z,97586.28
2022-10-31T16:40:40.148Z,97585.50
2022-10-31T16:43:18.769Z,97583.47
2022-10-31T16:45:52.632Z,97572.50
2022-10-31T16:48:24.899Z,97573.97
2022-10-31T16:50:54.547Z,97564.88
2022-10-31T16:53:22.776Z,97570.28
2022-10-31T16:56:00.301Z,97577.75
2022-10-31T16:58:36.908Z,97581.31
2022-10-31T17:01:09.789Z,97588.34
2022-10-31T17:03:38.254Z,97583.34
2022-10-31T17:06:06.551Z,97583.34
2022-10-31T17:08:34.753Z,97585.00
2022-10-31T17:11:03.922Z,97600.97
2022-10-31T17:13:35.127Z,97590.41
2022-10-31T17:16:04.881Z,97617.16
2022-10-31T17:18:33.083Z,97619.69
2022-10-31T17:21:06.229Z,97621.78
2022-10-31T17:23:34.440Z,97613.91
2022-10-31T17:26:02.518Z,97612.69
2022-10-31T17:28:30.601Z,97603.59
2022-10-31T17:30:59.497Z,97601.75
2022-10-31T17:33:27.969Z,97590.78
2022-10-31T17:35:56.157Z,97600.28
2022-10-31T17:38:24.376Z,97596.78
2022-10-31T17:40:52.426Z,97591.59
2022-10-31T17:43:20.528Z,97574.41
2022-10-31T17:45:48.592Z,97562.19
2022-10-31T17:48:16.704Z,97572.13
2022-10-31T17:50:44.759Z,97563.63
2022-10-31T17:53:12.866Z,97560.13
2022-10-31T17:55:40.921Z,97560.13
2022-10-31T17:58:12.391Z,97562.19
2022-10-31T18:00:47.236Z,97554.13
2022-10-31T18:03:18.607Z,97559.50
2022-10-31T18:05:59.322Z,97561.38
2022-10-31T18:08:37.619Z,97560.16
2022-10-31T18:11:17.222Z,97563.69
2022-10-31T18:13:45.619Z,97560.56
2022-10-31T18:16:19.367Z,97552.09
2022-10-31T18:18:56.204Z,97546.69
2022-10-31T18:21:24.264Z,97538.00
2022-10-31T18:23:56.908Z,97524.97
2022-10-31T18:26:27.292Z,97513.94
2022-10-31T18:28:55.591Z,97515.63
2022-10-31T18:31:24.184Z,97515.41
2022-10-31T18:33:57.071Z,97517.91
2022-10-31T18:36:25.746Z,97501.88
2022-10-31T18:38:53.924Z,97498.16
2022-10-31T18:41:22.151Z,97497.72
2022-10-31T18:43:50.213Z,97502.28
2022-10-31T18:46:18.804Z,97509.75
2022-10-31T18:48:47.004Z,97521.19
2022-10-31T18:51:16.014Z,97532.19
2022-10-31T18:53:51.781Z,97531.59
2022-10-31T18:56:20.105Z,97535.50
2022-10-31T18:58:48.301Z,97533.50
2022-10-31T19:01:18.810Z,97548.00
2022-10-31T19:03:51.906Z,97547.19
2022-10-31T19:06:20.013Z,97547.41
2022-10-31T19:08:48.191Z,97567.72
2022-10-31T19:11:16.754Z,97582.88
2022-10-31T19:13:44.956Z,97584.13
2022-10-31T19:16:17.029Z,97585.34
2022-10-31T19:18:45.345Z,97571.69
2022-10-31T19:21:18.205Z,97579.53
2022-10-31T19:23:47.005Z,97565.00
2022-10-31T19:26:15.251Z,97565.00
2022-10-31T19:28:43.531Z,97553.38
2022-10-31T19:31:12.006Z,97560.38
2022-10-31T19:33:40.081Z,97562.44
2022-10-31T19:36:14.978Z,97556.41
2022-10-31T19:38:45.822Z,97575.88
2022-10-31T19:41:19.783Z,97553.91
2022-10-31T19:43:48.369Z,97525.06
2022-10-31T19:46:22.756Z,97541.84
2022-10-31T19:48:55.940Z,97539.31
2022-10-31T19:51:24.114Z,97541.19
2022-10-31T19:53:52.582Z,97550.53
2022-10-31T19:56:23.789Z,97542.03
2022-10-31T19:58:51.960Z,97536.88
2022-10-31T20:01:23.823Z,97541.66
2022-10-31T20:03:52.450Z,97545.59
2022-10-31T20:06:29.441Z,97551.22
2022-10-31T20:08:58.126Z,97555.59
2022-10-31T20:11:29.089Z,97557.06
2022-10-31T20:13:59.201Z,97561.41
2022-10-31T20:16:28.245Z,97564.50
2022-10-31T20:18:57.023Z,97553.28
2022-10-31T20:21:28.244Z,97566.94
2022-10-31T20:24:00.646Z,97563.63
2022-10-31T20:26:31.601Z,97554.06
2022-10-31T20:29:01.233Z,97555.28
2022-10-31T20:31:34.975Z,97571.69
2022-10-31T20:34:03.157Z,97575.94
2022-10-31T20:36:31.358Z,97572.69
2022-10-31T20:39:00.450Z,97576.63
2022-10-31T20:41:28.843Z,97584.75
2022-10-31T20:43:58.244Z,97589.50
2022-10-31T20:46:27.768Z,97593.69
2022-10-31T20:48:55.882Z,97591.00
2022-10-31T20:51:28.999Z,97588.31
2022-10-31T20:53:59.214Z,97593.69
2022-10-31T20:56:28.764Z,97597.22
2022-10-31T20:58:57.685Z,97589.97
2022-10-31T21:01:37.117Z,97593.28
2022-10-31T21:04:06.427Z,97595.78
2022-10-31T21:06:35.372Z,97591.59
2022-10-31T21:09:03.581Z,97595.75
2022-10-31T21:11:31.780Z,97600.13
2022-10-31T21:14:02.618Z,97603.00
2022-10-31T21:16:35.983Z,97607.16
2022-10-31T21:19:05.027Z,97604.44
2022-10-31T21:21:36.714Z,97606.94
2022-10-31T21:26:50.520Z,97613.59
2022-10-31T21:29:20.489Z,97614.00
2022-10-31T21:31:49.540Z,97612.56
2022-10-31T21:34:17.853Z,97616.47
2022-10-31T21:36:45.960Z,97611.50
2022-10-31T21:39:14.139Z,97609.84
2022-10-31T21:41:42.341Z,97610.66
2022-10-31T21:44:10.424Z,97610.03
2022-10-31T21:46:40.097Z,97612.13
2022-10-31T21:49:10.668Z,97610.25
2022-10-31T21:51:38.905Z,97603.84
2022-10-31T21:54:25.676Z,97600.53
2022-10-31T21:56:55.440Z,97594.09
2022-10-31T21:59:23.760Z,97585.00
2022-10-31T22:01:52.961Z,97583.34
2022-10-31T22:04:21.123Z,97581.47
2022-10-31T22:06:49.356Z,97581.25
2022-10-31T22:09:19.937Z,97580.03
2022-10-31T22:11:48.041Z,97575.06
2022-10-31T22:14:16.214Z,97581.47
2022-10-31T22:16:44.685Z,97578.78
2022-10-31T22:19:14.781Z,97585.81
2022-10-31T22:21:49.050Z,97591.00
2022-10-31T22:24:18.652Z,97577.53
2022-10-31T22:26:46.854Z,97568.44
2022-10-31T22:29:18.751Z,97577.13
2022-10-31T22:31:57.231Z,97573.41
2022-10-31T22:34:28.713Z,97574.00
2022-10-31T22:36:57.037Z,97569.69
2022-10-31T22:39:25.239Z,97564.31
2022-10-31T22:41:53.346Z,97560.78
2022-10-31T22:44:21.433Z,97556.03
2022-10-31T22:46:49.509Z,97545.25
2022-10-31T22:49:17.568Z,97544.84
2022-10-31T22:51:46.251Z,97555.81
2022-10-31T22:54:18.568Z,97553.94
2022-10-31T22:56:46.977Z,97560.78
2022-10-31T22:59:17.125Z,97553.97
2022-10-31T23:01:46.184Z,97567.41
2022-10-31T23:04:16.609Z,97563.91
2022-10-31T23:06:45.618Z,97555.81
2022-10-31T23:09:17.021Z,97560.34
2022-10-31T23:11:45.824Z,97563.03
2022-10-31T23:14:20.854Z,97564.53
2022-10-31T23:16:56.020Z,97553.13
2022-10-31T23:19:29.980Z,97564.50
2022-10-31T23:22:05.024Z,97562.00
2022-10-31T23:24:42.471Z,97566.38
2022-10-31T23:27:17.642Z,97565.53
2022-10-31T23:29:54.568Z,97568.63
2022-10-31T23:32:37.075Z,97566.78
2022-10-31T23:35:10.678Z,97563.06
2022-10-31T23:37:39.577Z,97568.44
2022-10-31T23:40:08.906Z,97562.22
2022-10-31T23:42:36.970Z,97563.47
2022-10-31T23:45:05.409Z,97567.00
2022-10-31T23:47:33.490Z,97577.34
2022-10-31T23:50:01.548Z,97571.13
2022-10-31T23:52:29.657Z,97565.53
2022-10-31T23:54:59.873Z,97571.34
2022-10-31T23:57:27.986Z,97575.06
2022-10-31T23:59:56.039Z,97576.94
